Time;durP1;ratioP1;P1;durP2;ratioP2;P2;SDS_P1;SDS_P2;PMS_P1;PMS_P2;Temp;Humidity;BMP_temperature;BMP_pressure;BME280_temperature;BME280_humidity;BME280_pressure;Samples;Min_cycle;Max_cycle;Signal;HPM_P1;HPM_P2
2022/12/06 00:00:56;;;;;;;19.60;10.85;;;;;;;;;;5008921;28;20137;-75
2022/12/06 00:03:22;;;;;;;17.20;10.23;;;;;;;;;;5004687;28;20726;-75
2022/12/06 00:05:48;;;;;;;18.38;11.32;;;;;;;;;;4989775;28;20034;-75
2022/12/06 00:08:14;;;;;;;25.33;13.95;;;;;;;;;;5002843;28;20048;-75
2022/12/06 00:10:40;;;;;;;19.77;11.60;;;;;;;;;;5006416;28;20073;-75
2022/12/06 00:13:06;;;;;;;20.05;12.35;;;;;;;;;;5006080;28;20129;-75
2022/12/06 00:15:35;;;;;;;19.83;12.48;;;;;;;;;;5007720;28;20110;-75
2022/12/06 00:18:01;;;;;;;22.30;13.65;;;;;;;;;;5009173;28;20072;-76
2022/12/06 00:20:27;;;;;;;23.20;11.63;;;;;;;;;;5003406;28;20049;-75
2022/12/06 00:22:53;;;;;;;21.67;11.80;;;;;;;;;;5003466;28;20037;-75
2022/12/06 00:25:19;;;;;;;18.70;10.07;;;;;;;;;;5007916;28;20076;-76
2022/12/06 00:27:45;;;;;;;17.08;9.68;;;;;;;;;;5007148;28;20418;-75
2022/12/06 00:30:11;;;;;;;18.60;9.20;;;;;;;;;;5005679;28;20157;-75
2022/12/06 00:32:37;;;;;;;16.13;9.55;;;;;;;;;;5007552;28;20124;-75
2022/12/06 00:35:03;;;;;;;17.75;9.30;;;;;;;;;;5004049;28;20439;-75
2022/12/06 00:37:29;;;;;;;17.08;9.35;;;;;;;;;;5002173;28;20041;-75
2022/12/06 00:39:55;;;;;;;19.65;10.50;;;;;;;;;;4990752;28;20748;-76
2022/12/06 00:42:21;;;;;;;30.02;15.68;;;;;;;;;;5007496;28;20109;-76
2022/12/06 00:44:47;;;;;;;24.25;12.98;;;;;;;;;;5009040;28;20465;-75
2022/12/06 00:47:13;;;;;;;25.40;13.75;;;;;;;;;;5003311;28;20085;-75
2022/12/06 00:49:39;;;;;;;53.67;27.83;;;;;;;;;;5003040;28;20031;-75
2022/12/06 00:52:05;;;;;;;65.35;33.08;;;;;;;;;;5007814;28;20069;-75
2022/12/06 00:54:31;;;;;;;39.28;21.13;;;;;;;;;;5004612;28;20038;-75
2022/12/06 00:56:57;;;;;;;34.55;18.73;;;;;;;;;;5006723;28;20034;-76
2022/12/06 00:59:23;;;;;;;27.48;14.35;;;;;;;;;;5004490;28;20036;-75
2022/12/06 01:01:49;;;;;;;22.38;11.38;;;;;;;;;;5002174;28;20088;-75
2022/12/06 01:04:15;;;;;;;21.58;11.07;;;;;;;;;;5006047;28;20038;-75
2022/12/06 01:06:41;;;;;;;22.83;10.88;;;;;;;;;;5000844;28;20062;-75
2022/12/06 01:09:08;;;;;;;22.33;11.48;;;;;;;;;;4998269;28;20400;-75
2022/12/06 01:11:34;;;;;;;20.70;11.07;;;;;;;;;;5007310;28;20062;-76
2022/12/06 01:14:01;;;;;;;23.75;11.88;;;;;;;;;;5005132;28;20033;-76
2022/12/06 01:16:28;;;;;;;23.35;11.90;;;;;;;;;;4997415;28;20043;-75
2022/12/06 01:18:55;;;;;;;24.33;12.50;;;;;;;;;;5002345;28;20030;-75
2022/12/06 01:21:22;;;;;;;24.00;12.50;;;;;;;;;;4998868;28;20185;-75
2022/12/06 01:23:49;;;;;;;23.20;12.70;;;;;;;;;;4998274;28;20030;-75
2022/12/06 01:26:17;;;;;;;27.88;15.00;;;;;;;;;;5006494;28;20038;-75
2022/12/06 01:28:43;;;;;;;24.55;13.98;;;;;;;;;;5006346;28;20045;-75
2022/12/06 01:31:09;;;;;;;21.38;11.27;;;;;;;;;;5004432;28;20053;-75
2022/12/06 01:33:35;;;;;;;21.02;9.60;;;;;;;;;;4998085;28;20058;-75
2022/12/06 01:36:01;;;;;;;16.20;8.80;;;;;;;;;;5006501;28;20082;-75
2022/12/06 01:38:27;;;;;;;19.08;9.52;;;;;;;;;;5007214;28;20039;-75
2022/12/06 01:40:53;;;;;;;18.67;9.18;;;;;;;;;;5006992;28;20048;-75
2022/12/06 01:43:30;;;;;;;20.23;10.25;;;;;;;;;;5001546;28;20025;-75
2022/12/06 01:45:57;;;;;;;18.50;9.05;;;;;;;;;;5005573;28;20041;-75
2022/12/06 01:48:25;;;;;;;17.70;9.90;;;;;;;;;;5002818;28;20104;-75
2022/12/06 01:50:52;;;;;;;18.77;9.57;;;;;;;;;;5004055;28;20038;-75
2022/12/06 01:53:18;;;;;;;17.73;9.10;;;;;;;;;;4989631;28;20026;-75
2022/12/06 01:55:45;;;;;;;20.27;10.35;;;;;;;;;;5007924;28;20069;-75
2022/12/06 01:58:16;;;;;;;16.40;8.52;;;;;;;;;;5002317;28;20053;-75
2022/12/06 02:00:42;;;;;;;13.88;8.75;;;;;;;;;;5005480;28;20033;-75
2022/12/06 02:03:12;;;;;;;21.45;11.07;;;;;;;;;;5003974;28;20108;-75
2022/12/06 02:05:38;;;;;;;37.55;19.17;;;;;;;;;;5007383;28;20048;-75
2022/12/06 02:08:04;;;;;;;31.30;15.70;;;;;;;;;;5005943;28;20022;-75
2022/12/06 02:10:30;;;;;;;23.08;11.45;;;;;;;;;;5002408;28;20038;-75
2022/12/06 02:12:57;;;;;;;16.67;8.88;;;;;;;;;;5002275;28;20025;-76
2022/12/06 02:15:43;;;;;;;19.63;8.73;;;;;;;;;;4997629;28;20053;-76
2022/12/06 02:18:12;;;;;;;18.92;8.73;;;;;;;;;;5005552;28;20057;-75
2022/12/06 02:20:44;;;;;;;20.90;10.13;;;;;;;;;;4998263;28;20037;-75
2022/12/06 02:23:30;;;;;;;20.05;10.18;;;;;;;;;;4993903;28;20038;-75
2022/12/06 02:25:59;;;;;;;18.88;9.48;;;;;;;;;;5005828;28;20610;-75
2022/12/06 02:28:34;;;;;;;26.02;13.55;;;;;;;;;;5002156;28;20034;-75
2022/12/06 02:31:04;;;;;;;20.13;10.75;;;;;;;;;;5001288;28;20097;-75
2022/12/06 02:33:32;;;;;;;23.92;10.75;;;;;;;;;;5002200;28;20048;-75
2022/12/06 02:36:08;;;;;;;22.42;12.38;;;;;;;;;;5007508;28;20065;-75
2022/12/06 02:38:34;;;;;;;23.30;12.52;;;;;;;;;;5003559;28;20037;-75
2022/12/06 02:41:01;;;;;;;27.13;15.25;;;;;;;;;;5005785;28;20044;-75
2022/12/06 02:43:30;;;;;;;29.15;13.50;;;;;;;;;;5003920;28;20041;-75
2022/12/06 02:45:58;;;;;;;25.60;12.43;;;;;;;;;;4997283;28;20105;-75
2022/12/06 02:48:25;;;;;;;22.70;11.43;;;;;;;;;;5000639;28;20120;-75
2022/12/06 02:51:06;;;;;;;21.25;11.13;;;;;;;;;;5006485;28;20100;-75
2022/12/06 02:53:33;;;;;;;17.25;8.45;;;;;;;;;;5005830;28;20033;-75
2022/12/06 02:55:59;;;;;;;17.90;9.75;;;;;;;;;;5000160;28;20033;-75
2022/12/06 02:58:26;;;;;;;18.52;9.45;;;;;;;;;;5007822;28;20049;-75
2022/12/06 03:00:56;;;;;;;17.63;8.65;;;;;;;;;;4996916;28;20038;-76
2022/12/06 03:03:22;;;;;;;18.77;8.70;;;;;;;;;;5006746;28;20037;-75
2022/12/06 03:05:51;;;;;;;17.70;9.40;;;;;;;;;;5001416;28;20038;-75
2022/12/06 03:08:21;;;;;;;18.50;9.48;;;;;;;;;;5003335;28;20038;-75
2022/12/06 03:10:52;;;;;;;20.40;10.07;;;;;;;;;;5000445;28;20224;-75
2022/12/06 03:13:25;;;;;;;40.65;18.20;;;;;;;;;;5007527;28;20037;-75
2022/12/06 03:15:57;;;;;;;40.95;19.70;;;;;;;;;;5007504;28;20032;-75
2022/12/06 03:18:52;;;;;;;39.30;18.40;;;;;;;;;;5005955;28;20038;-75
2022/12/06 03:21:21;;;;;;;33.83;16.00;;;;;;;;;;4981691;28;20050;-75
2022/12/06 03:23:48;;;;;;;29.33;14.13;;;;;;;;;;5011486;28;20865;-76
2022/12/06 03:26:16;;;;;;;31.85;14.48;;;;;;;;;;5000574;28;20037;-75
2022/12/06 03:28:45;;;;;;;31.17;14.32;;;;;;;;;;5008182;28;20208;-75
2022/12/06 03:31:11;;;;;;;33.20;15.88;;;;;;;;;;4994321;28;20077;-75
2022/12/06 03:33:41;;;;;;;33.92;15.35;;;;;;;;;;5010701;28;20184;-75
2022/12/06 03:36:08;;;;;;;34.40;15.85;;;;;;;;;;5008116;28;20034;-76
2022/12/06 03:38:36;;;;;;;31.40;14.15;;;;;;;;;;5007186;28;20038;-76
2022/12/06 03:41:05;;;;;;;26.40;12.57;;;;;;;;;;5003686;28;20477;-75
2022/12/06 03:43:32;;;;;;;25.15;13.35;;;;;;;;;;5001844;28;20033;-75
2022/12/06 03:45:58;;;;;;;24.27;10.88;;;;;;;;;;5004966;28;20370;-75
2022/12/06 03:48:43;;;;;;;21.75;10.57;;;;;;;;;;5002344;28;20038;-75
2022/12/06 03:51:15;;;;;;;21.55;9.57;;;;;;;;;;5007378;28;20045;-75
2022/12/06 03:53:56;;;;;;;15.52;7.88;;;;;;;;;;5002269;28;20137;-75
2022/12/06 03:56:22;;;;;;;13.77;6.55;;;;;;;;;;5007346;28;20529;-76
2022/12/06 03:58:48;;;;;;;11.77;6.32;;;;;;;;;;5007203;28;20051;-75
2022/12/06 04:01:14;;;;;;;16.58;7.28;;;;;;;;;;5000727;28;20390;-75
2022/12/06 04:03:40;;;;;;;16.23;6.72;;;;;;;;;;5002484;28;20038;-75
2022/12/06 04:06:07;;;;;;;10.43;5.45;;;;;;;;;;5006879;28;20038;-76
2022/12/06 04:08:33;;;;;;;13.05;6.03;;;;;;;;;;5002764;28;20030;-75
2022/12/06 04:10:59;;;;;;;11.88;6.30;;;;;;;;;;5004416;28;20117;-75
2022/12/06 04:13:25;;;;;;;12.18;6.32;;;;;;;;;;5003774;28;20153;-75
2022/12/06 04:15:54;;;;;;;11.50;5.70;;;;;;;;;;5007029;28;20041;-75
2022/12/06 04:18:21;;;;;;;12.18;5.82;;;;;;;;;;5004073;28;20026;-75
2022/12/06 04:23:46;;;;;;;14.35;6.65;;;;;;;;;;4997553;28;20053;-75
2022/12/06 04:26:14;;;;;;;12.75;6.35;;;;;;;;;;5006875;28;20042;-75
2022/12/06 04:39:40;;;;;;;14.35;5.80;;;;;;;;;;5002117;28;20103;-75
2022/12/06 04:44:50;;;;;;;10.75;6.15;;;;;;;;;;5004440;28;20457;-75
2022/12/06 04:47:16;;;;;;;12.48;6.25;;;;;;;;;;5008558;28;20921;-75
2022/12/06 04:49:42;;;;;;;13.73;5.45;;;;;;;;;;5005439;28;20038;-75
2022/12/06 04:52:08;;;;;;;13.82;6.72;;;;;;;;;;5008857;28;20061;-75
2022/12/06 04:54:35;;;;;;;12.32;5.93;;;;;;;;;;5005930;28;20022;-75
2022/12/06 04:57:01;;;;;;;13.30;7.13;;;;;;;;;;5004766;28;20137;-75
2022/12/06 04:59:27;;;;;;;16.52;7.82;;;;;;;;;;5008208;28;20539;-75
2022/12/06 05:01:54;;;;;;;14.18;7.65;;;;;;;;;;5004714;28;20040;-75
2022/12/06 05:04:20;;;;;;;14.80;7.55;;;;;;;;;;5000947;28;20048;-75
2022/12/06 05:06:47;;;;;;;14.20;7.32;;;;;;;;;;5007129;28;20022;-75
2022/12/06 05:09:13;;;;;;;12.52;6.97;;;;;;;;;;5004085;28;20068;-75
2022/12/06 05:11:39;;;;;;;14.63;7.75;;;;;;;;;;5004585;28;20040;-75
2022/12/06 05:14:05;;;;;;;15.32;7.90;;;;;;;;;;5007671;28;20037;-75
2022/12/06 05:16:31;;;;;;;16.58;8.15;;;;;;;;;;5002819;28;20045;-75
2022/12/06 05:18:57;;;;;;;14.43;7.95;;;;;;;;;;5002965;28;20041;-75
2022/12/06 05:21:24;;;;;;;14.25;7.55;;;;;;;;;;5005634;28;20044;-75
2022/12/06 05:23:53;;;;;;;15.32;8.27;;;;;;;;;;5009059;28;20080;-75
2022/12/06 05:26:20;;;;;;;15.88;7.93;;;;;;;;;;5004793;28;20033;-75
2022/12/06 05:28:46;;;;;;;14.23;9.07;;;;;;;;;;5009885;28;20523;-76
2022/12/06 05:31:12;;;;;;;18.00;9.85;;;;;;;;;;5006752;28;20386;-75
2022/12/06 05:33:39;;;;;;;16.95;10.68;;;;;;;;;;5000478;28;20030;-75
2022/12/06 05:36:15;;;;;;;16.55;9.70;;;;;;;;;;5003727;28;20624;-75
2022/12/06 05:38:41;;;;;;;15.43;8.60;;;;;;;;;;5005206;28;20048;-76
2022/12/06 05:41:07;;;;;;;15.77;8.45;;;;;;;;;;5006573;28;20389;-75
2022/12/06 05:43:34;;;;;;;18.38;9.32;;;;;;;;;;5007524;28;20473;-75
2022/12/06 05:46:00;;;;;;;15.80;7.57;;;;;;;;;;4995979;28;20113;-75
2022/12/06 05:48:26;;;;;;;18.55;8.95;;;;;;;;;;5007680;28;20030;-75
2022/12/06 05:50:52;;;;;;;14.70;8.00;;;;;;;;;;5008385;28;20030;-75
2022/12/06 05:53:19;;;;;;;17.95;9.25;;;;;;;;;;5006474;28;20076;-75
2022/12/06 05:55:45;;;;;;;13.75;7.82;;;;;;;;;;5008395;28;20120;-76
2022/12/06 05:58:11;;;;;;;15.57;8.43;;;;;;;;;;5005977;28;20053;-75
2022/12/06 06:00:37;;;;;;;15.48;8.40;;;;;;;;;;5006763;28;20066;-75
2022/12/06 06:03:04;;;;;;;14.50;8.27;;;;;;;;;;5006541;28;20030;-76
2022/12/06 06:05:30;;;;;;;14.63;8.18;;;;;;;;;;5006113;28;20052;-76
2022/12/06 06:07:56;;;;;;;15.95;7.18;;;;;;;;;;5003967;28;20041;-75
2022/12/06 06:10:23;;;;;;;13.15;6.85;;;;;;;;;;5002449;28;20044;-75
2022/12/06 06:12:49;;;;;;;17.95;8.13;;;;;;;;;;5006044;28;20054;-75
2022/12/06 06:15:15;;;;;;;16.10;9.32;;;;;;;;;;5003285;28;20100;-76
2022/12/06 06:17:42;;;;;;;16.25;7.85;;;;;;;;;;5009460;28;20566;-75
2022/12/06 06:20:09;;;;;;;19.52;10.32;;;;;;;;;;5001956;28;20036;-75
2022/12/06 06:22:35;;;;;;;25.42;13.85;;;;;;;;;;5005894;28;20038;-75
2022/12/06 06:25:02;;;;;;;20.80;10.93;;;;;;;;;;5007416;28;20033;-75
2022/12/06 06:27:28;;;;;;;23.23;13.85;;;;;;;;;;5003634;28;20618;-75
2022/12/06 06:29:54;;;;;;;24.70;14.38;;;;;;;;;;5004889;28;20397;-75
2022/12/06 06:32:20;;;;;;;29.55;14.25;;;;;;;;;;5006131;28;20045;-75
2022/12/06 06:34:46;;;;;;;22.17;11.57;;;;;;;;;;5006180;28;20026;-75
2022/12/06 06:37:12;;;;;;;19.48;9.95;;;;;;;;;;5004217;28;20038;-76
2022/12/06 06:39:38;;;;;;;17.65;9.50;;;;;;;;;;5004934;28;20040;-75
2022/12/06 06:42:04;;;;;;;15.07;7.78;;;;;;;;;;4984985;28;20069;-75
2022/12/06 06:44:31;;;;;;;17.58;8.32;;;;;;;;;;5006753;28;20108;-75
2022/12/06 06:46:57;;;;;;;17.30;9.60;;;;;;;;;;4998798;28;20144;-75
2022/12/06 06:49:23;;;;;;;15.85;8.23;;;;;;;;;;5005651;28;20472;-75
2022/12/06 06:51:50;;;;;;;16.95;8.00;;;;;;;;;;5005013;28;20034;-76
2022/12/06 06:54:17;;;;;;;21.20;9.02;;;;;;;;;;4995517;28;20026;-75
2022/12/06 06:56:43;;;;;;;19.55;10.98;;;;;;;;;;4998870;28;20088;-75
2022/12/06 06:59:09;;;;;;;24.40;11.95;;;;;;;;;;5007198;28;20084;-75
2022/12/06 07:01:35;;;;;;;21.67;10.85;;;;;;;;;;5006512;28;20046;-75
2022/12/06 07:04:01;;;;;;;23.77;10.75;;;;;;;;;;5004150;28;20030;-75
2022/12/06 07:06:27;;;;;;;19.55;11.68;;;;;;;;;;5001495;28;20409;-75
2022/12/06 07:08:53;;;;;;;20.38;11.57;;;;;;;;;;5000964;28;20034;-75
2022/12/06 07:11:19;;;;;;;21.55;11.65;;;;;;;;;;5003791;28;20061;-75
2022/12/06 07:13:45;;;;;;;20.38;11.50;;;;;;;;;;5002596;28;20693;-75
2022/12/06 07:16:13;;;;;;;18.70;11.60;;;;;;;;;;5001933;28;20037;-75
2022/12/06 07:18:39;;;;;;;23.70;13.30;;;;;;;;;;5004060;28;20033;-75
2022/12/06 07:21:06;;;;;;;26.85;13.98;;;;;;;;;;5000922;28;20072;-75
2022/12/06 07:23:33;;;;;;;21.73;13.68;;;;;;;;;;5005381;28;20045;-75
2022/12/06 07:26:09;;;;;;;24.27;13.73;;;;;;;;;;5006290;28;20041;-75
2022/12/06 07:28:35;;;;;;;22.77;13.05;;;;;;;;;;5004584;28;20041;-75
2022/12/06 07:31:18;;;;;;;28.35;14.25;;;;;;;;;;5005721;28;20046;-75
2022/12/06 07:33:44;;;;;;;31.33;14.48;;;;;;;;;;5002418;28;20044;-76
2022/12/06 07:36:11;;;;;;;25.25;13.63;;;;;;;;;;5006598;28;20037;-75
2022/12/06 07:38:37;;;;;;;33.83;17.27;;;;;;;;;;5004541;28;20152;-75
2022/12/06 07:44:59;;;;;;;44.60;22.95;;;;;;;;;;5005651;28;20127;-75
2022/12/06 07:46:35;;;;;;;51.70;26.90;;;;;;;;;;4999478;28;20064;-75
2022/12/06 07:49:01;;;;;;;57.75;27.50;;;;;;;;;;4999827;28;20446;-75
2022/12/06 07:51:27;;;;;;;55.88;30.42;;;;;;;;;;5004526;28;20129;-75
2022/12/06 07:53:54;;;;;;;55.83;27.73;;;;;;;;;;5005555;28;20038;-75
2022/12/06 07:56:20;;;;;;;57.20;29.45;;;;;;;;;;5004082;28;20038;-76
2022/12/06 07:58:46;;;;;;;47.92;26.48;;;;;;;;;;5001373;28;20044;-75
2022/12/06 08:01:12;;;;;;;45.58;26.63;;;;;;;;;;5003346;28;20882;-75
2022/12/06 08:03:38;;;;;;;47.85;25.52;;;;;;;;;;5001803;28;20045;-75
2022/12/06 08:06:04;;;;;;;44.13;24.98;;;;;;;;;;4999301;28;20036;-75
2022/12/06 08:08:31;;;;;;;46.33;24.75;;;;;;;;;;5001557;28;21824;-75
2022/12/06 08:11:01;;;;;;;51.90;24.02;;;;;;;;;;5005497;28;20144;-75
2022/12/06 08:13:28;;;;;;;43.42;22.38;;;;;;;;;;5009633;28;20109;-75
2022/12/06 08:15:54;;;;;;;42.90;22.08;;;;;;;;;;5008347;28;20033;-75
2022/12/06 08:18:20;;;;;;;42.80;21.42;;;;;;;;;;4988380;28;20029;-75
2022/12/06 08:20:46;;;;;;;40.15;20.60;;;;;;;;;;5008746;28;20084;-75
2022/12/06 08:23:12;;;;;;;38.33;20.42;;;;;;;;;;5003864;28;20042;-75
2022/12/06 08:25:38;;;;;;;39.67;20.98;;;;;;;;;;5006116;28;20469;-75
2022/12/06 08:28:04;;;;;;;37.83;21.15;;;;;;;;;;5005649;28;20113;-75
2022/12/06 08:30:30;;;;;;;40.05;19.38;;;;;;;;;;5006055;28;20053;-75
2022/12/06 08:32:56;;;;;;;39.88;20.27;;;;;;;;;;5004405;28;20530;-75
2022/12/06 08:35:22;;;;;;;37.92;19.38;;;;;;;;;;4990215;28;20112;-75
2022/12/06 08:37:48;;;;;;;38.47;21.10;;;;;;;;;;5002797;28;20030;-75
2022/12/06 08:40:14;;;;;;;41.22;20.27;;;;;;;;;;5009789;28;20658;-75
2022/12/06 08:42:42;;;;;;;39.03;21.17;;;;;;;;;;5007520;28;20045;-75
2022/12/06 08:45:08;;;;;;;46.92;23.20;;;;;;;;;;5007173;28;20026;-75
2022/12/06 08:47:34;;;;;;;42.95;23.88;;;;;;;;;;5002589;28;20045;-75
2022/12/06 08:50:00;;;;;;;44.53;22.77;;;;;;;;;;5006777;28;20112;-75
2022/12/06 08:52:26;;;;;;;39.85;22.02;;;;;;;;;;5004707;28;20803;-75
2022/12/06 08:54:52;;;;;;;37.10;19.73;;;;;;;;;;5006119;28;20030;-75
2022/12/06 08:57:18;;;;;;;35.25;18.70;;;;;;;;;;5006979;28;20049;-75
2022/12/06 08:59:44;;;;;;;37.83;19.48;;;;;;;;;;5007259;28;20551;-75
2022/12/06 09:02:11;;;;;;;45.30;23.48;;;;;;;;;;5002919;28;20592;-75
2022/12/06 09:04:37;;;;;;;44.50;25.13;;;;;;;;;;5007827;28;20042;-75
2022/12/06 09:07:03;;;;;;;50.78;24.75;;;;;;;;;;4990477;28;20030;-75
2022/12/06 09:09:29;;;;;;;45.22;23.83;;;;;;;;;;5006931;28;20037;-75
2022/12/06 09:11:55;;;;;;;47.97;23.00;;;;;;;;;;5005024;28;20354;-75
2022/12/06 09:14:21;;;;;;;49.53;22.73;;;;;;;;;;5006438;28;20037;-75
2022/12/06 09:16:47;;;;;;;46.05;22.05;;;;;;;;;;5006019;28;20041;-75
2022/12/06 09:19:13;;;;;;;46.22;21.10;;;;;;;;;;5002183;28;20129;-75
2022/12/06 09:21:41;;;;;;;39.45;20.33;;;;;;;;;;5003904;28;20057;-75
2022/12/06 09:24:12;;;;;;;33.13;18.83;;;;;;;;;;5005305;28;20033;-75
2022/12/06 09:26:38;;;;;;;37.38;19.08;;;;;;;;;;5007207;28;20453;-75
2022/12/06 09:29:04;;;;;;;40.58;22.55;;;;;;;;;;5002751;28;20037;-75
2022/12/06 09:31:30;;;;;;;42.95;21.27;;;;;;;;;;5005109;28;20173;-75
2022/12/06 09:33:56;;;;;;;43.22;26.67;;;;;;;;;;5005993;28;20029;-75
2022/12/06 09:36:26;;;;;;;48.20;30.63;;;;;;;;;;5007572;28;20034;-75
2022/12/06 09:38:55;;;;;;;51.95;33.20;;;;;;;;;;5003664;28;20605;-75
2022/12/06 09:41:21;;;;;;;53.55;35.60;;;;;;;;;;5005819;28;20046;-75
2022/12/06 09:43:54;;;;;;;61.83;35.63;;;;;;;;;;5007425;28;20124;-75
2022/12/06 09:46:31;;;;;;;68.57;41.17;;;;;;;;;;5002664;28;20038;-75
2022/12/06 09:49:10;;;;;;;56.22;35.05;;;;;;;;;;5007073;28;20064;-75
2022/12/06 09:51:44;;;;;;;62.88;35.58;;;;;;;;;;5003307;28;20113;-75
2022/12/06 09:54:13;;;;;;;57.10;35.60;;;;;;;;;;5005545;28;20049;-75
2022/12/06 09:56:58;;;;;;;54.20;33.28;;;;;;;;;;5001522;28;20496;-75
2022/12/06 09:59:42;;;;;;;75.55;43.83;;;;;;;;;;4996608;28;20042;-75
2022/12/06 10:02:28;;;;;;;79.93;48.65;;;;;;;;;;5002054;28;20048;-75
2022/12/06 10:05:05;;;;;;;92.25;58.03;;;;;;;;;;4961972;28;20048;-75
2022/12/06 10:07:47;;;;;;;100.35;64.00;;;;;;;;;;4999161;28;20088;-75
2022/12/06 10:10:31;;;;;;;85.55;54.58;;;;;;;;;;5004447;28;20034;-75
2022/12/06 10:13:16;;;;;;;82.68;57.65;;;;;;;;;;5001486;28;20040;-75
2022/12/06 10:15:42;;;;;;;81.72;55.60;;;;;;;;;;5006365;28;20045;-75
2022/12/06 10:18:26;;;;;;;80.90;52.42;;;;;;;;;;4984196;28;20046;-75
2022/12/06 10:20:52;;;;;;;73.20;45.85;;;;;;;;;;4986392;28;20034;-75
2022/12/06 10:23:21;;;;;;;69.82;38.10;;;;;;;;;;5004033;28;20042;-75
2022/12/06 10:25:53;;;;;;;57.05;29.27;;;;;;;;;;5004771;28;20042;-75
2022/12/06 10:28:28;;;;;;;50.42;26.23;;;;;;;;;;4997438;28;20069;-75
2022/12/06 10:30:56;;;;;;;41.80;22.55;;;;;;;;;;5003351;28;20057;-75
2022/12/06 10:33:47;;;;;;;41.67;19.75;;;;;;;;;;5004729;28;20037;-75
2022/12/06 10:36:15;;;;;;;24.63;13.57;;;;;;;;;;5004078;28;20026;-75
2022/12/06 10:38:45;;;;;;;29.08;18.45;;;;;;;;;;5004083;28;20035;-75
2022/12/06 10:41:46;;;;;;;42.97;27.23;;;;;;;;;;5003552;28;20076;-76
2022/12/06 10:44:12;;;;;;;24.25;15.80;;;;;;;;;;4925827;29;20055;-75
2022/12/06 10:47:02;;;;;;;24.80;15.90;;;;;;;;;;4986184;28;20057;-75
2022/12/06 10:49:28;;;;;;;41.42;27.83;;;;;;;;;;5003127;28;20034;-75
2022/12/06 10:51:57;;;;;;;39.08;27.98;;;;;;;;;;5000889;28;20088;-75
2022/12/06 10:54:30;;;;;;;44.95;31.02;;;;;;;;;;5003758;28;20080;-75
2022/12/06 10:56:56;;;;;;;31.77;23.13;;;;;;;;;;5004436;28;20112;-75
2022/12/06 10:59:37;;;;;;;23.30;17.10;;;;;;;;;;5002738;28;20034;-75
2022/12/06 11:02:23;;;;;;;19.05;10.00;;;;;;;;;;5003773;28;20049;-75
2022/12/06 11:04:50;;;;;;;14.50;6.55;;;;;;;;;;4986258;28;20128;-75
2022/12/06 11:07:19;;;;;;;13.38;7.07;;;;;;;;;;4986918;28;20046;-75
2022/12/06 11:09:48;;;;;;;14.52;7.47;;;;;;;;;;5003646;28;20041;-75
2022/12/06 11:12:17;;;;;;;12.88;4.72;;;;;;;;;;4999353;28;20081;-75
2022/12/06 11:14:46;;;;;;;22.73;5.60;;;;;;;;;;5000170;28;20038;-75
2022/12/06 11:17:21;;;;;;;10.10;4.18;;;;;;;;;;4984618;28;20034;-75
2022/12/06 11:20:01;;;;;;;22.55;10.00;;;;;;;;;;4984302;28;20038;-75
2022/12/06 11:22:36;;;;;;;18.60;7.90;;;;;;;;;;5002445;28;20038;-75
2022/12/06 11:25:05;;;;;;;13.20;4.88;;;;;;;;;;5001915;28;20033;-75
2022/12/06 11:27:39;;;;;;;7.53;4.28;;;;;;;;;;4999972;28;20038;-75
2022/12/06 11:30:12;;;;;;;9.90;3.33;;;;;;;;;;4982856;28;20042;-75
2022/12/06 11:32:39;;;;;;;6.80;3.47;;;;;;;;;;5002099;28;20120;-75
2022/12/06 11:35:11;;;;;;;5.43;2.30;;;;;;;;;;5002504;28;20034;-75
2022/12/06 11:37:37;;;;;;;6.10;2.53;;;;;;;;;;5003511;28;20501;-75
2022/12/06 11:40:06;;;;;;;5.15;2.72;;;;;;;;;;5000619;28;20026;-75
2022/12/06 11:42:32;;;;;;;5.80;2.75;;;;;;;;;;5003326;28;20038;-75
2022/12/06 11:45:06;;;;;;;8.48;2.97;;;;;;;;;;5006157;28;20523;-75
2022/12/06 11:47:32;;;;;;;6.63;3.22;;;;;;;;;;5006959;28;20121;-75
2022/12/06 11:49:58;;;;;;;6.40;2.20;;;;;;;;;;5000821;28;20456;-75
2022/12/06 11:52:36;;;;;;;6.47;2.78;;;;;;;;;;5003292;28;20033;-75
2022/12/06 11:55:20;;;;;;;10.32;4.18;;;;;;;;;;5001622;28;20033;-75
2022/12/06 11:57:46;;;;;;;10.93;7.05;;;;;;;;;;5004315;28;20037;-75
2022/12/06 12:00:14;;;;;;;8.25;4.93;;;;;;;;;;5003078;28;20034;-73
2022/12/06 12:02:42;;;;;;;11.48;4.88;;;;;;;;;;5003767;28;20041;-75
2022/12/06 12:05:37;;;;;;;7.32;4.40;;;;;;;;;;5006613;28;20088;-75
2022/12/06 12:08:14;;;;;;;9.48;3.88;;;;;;;;;;5004381;28;20116;-73
2022/12/06 12:10:42;;;;;;;8.45;4.50;;;;;;;;;;5004271;28;20046;-73
2022/12/06 12:15:56;;;;;;;11.48;5.63;;;;;;;;;;5002960;28;20061;-74
2022/12/06 12:18:25;;;;;;;19.17;10.13;;;;;;;;;;5000845;28;20476;-74
2022/12/06 12:20:51;;;;;;;19.75;9.52;;;;;;;;;;5006017;28;20041;-74
2022/12/06 12:23:21;;;;;;;29.98;13.57;;;;;;;;;;5005243;28;20213;-74
2022/12/06 12:26:00;;;;;;;39.13;23.58;;;;;;;;;;5007019;28;20146;-74
2022/12/06 12:28:31;;;;;;;21.95;11.15;;;;;;;;;;5004099;28;20034;-74
2022/12/06 12:30:58;;;;;;;14.70;8.07;;;;;;;;;;5003407;28;20061;-74
2022/12/06 12:33:24;;;;;;;14.43;8.75;;;;;;;;;;5001618;28;20457;-74
2022/12/06 12:35:55;;;;;;;10.93;5.82;;;;;;;;;;5003461;28;20049;-75
2022/12/06 12:38:21;;;;;;;9.35;4.10;;;;;;;;;;4987106;28;20034;-75
2022/12/06 12:40:52;;;;;;;7.90;3.55;;;;;;;;;;5002746;28;20045;-75
2022/12/06 12:43:20;;;;;;;8.77;5.18;;;;;;;;;;5003290;28;20109;-74
2022/12/06 12:46:07;;;;;;;17.67;11.25;;;;;;;;;;5004975;28;20033;-75
2022/12/06 12:48:33;;;;;;;15.70;8.55;;;;;;;;;;5004471;28;20667;-75
2022/12/06 12:51:01;;;;;;;11.02;7.15;;;;;;;;;;5003373;28;20485;-74
2022/12/06 12:53:39;;;;;;;10.68;6.80;;;;;;;;;;4985133;28;20030;-74
2022/12/06 12:56:09;;;;;;;15.55;7.60;;;;;;;;;;5006056;28;20113;-74
2022/12/06 12:58:35;;;;;;;16.40;8.00;;;;;;;;;;5003813;28;20034;-74
2022/12/06 13:01:05;;;;;;;11.93;5.50;;;;;;;;;;5002476;28;20064;-74
2022/12/06 13:03:31;;;;;;;13.55;6.13;;;;;;;;;;5003654;28;20045;-75
2022/12/06 13:05:58;;;;;;;11.52;4.85;;;;;;;;;;5004020;28;20038;-74
2022/12/06 13:08:28;;;;;;;10.40;5.53;;;;;;;;;;5002789;28;20053;-74
2022/12/06 13:10:55;;;;;;;14.23;7.03;;;;;;;;;;5003236;28;20579;-74
2022/12/06 13:13:26;;;;;;;19.83;9.73;;;;;;;;;;5003911;28;20452;-74
2022/12/06 13:15:53;;;;;;;36.33;15.43;;;;;;;;;;5005302;28;20025;-74
2022/12/06 13:18:20;;;;;;;31.70;15.45;;;;;;;;;;5003657;28;20065;-74
2022/12/06 13:20:47;;;;;;;26.58;13.60;;;;;;;;;;4987969;28;20061;-74
2022/12/06 13:23:18;;;;;;;32.97;15.45;;;;;;;;;;5003351;28;20116;-75
2022/12/06 13:25:47;;;;;;;30.60;15.90;;;;;;;;;;5003385;28;20153;-74
2022/12/06 13:28:18;;;;;;;33.88;18.10;;;;;;;;;;5001702;28;20041;-74
2022/12/06 13:30:45;;;;;;;32.17;16.02;;;;;;;;;;5003618;28;20129;-74
2022/12/06 13:33:19;;;;;;;24.98;12.15;;;;;;;;;;4980986;28;20802;-75
2022/12/06 13:35:50;;;;;;;24.90;10.65;;;;;;;;;;5000824;28;20915;-75
2022/12/06 13:38:16;;;;;;;26.00;11.97;;;;;;;;;;5005464;28;20045;-74
2022/12/06 13:40:51;;;;;;;30.00;16.35;;;;;;;;;;5004887;28;20034;-74
2022/12/06 13:43:23;;;;;;;23.05;11.88;;;;;;;;;;4978047;28;20033;-74
2022/12/06 13:45:54;;;;;;;21.23;12.07;;;;;;;;;;5005043;28;20030;-74
2022/12/06 13:48:26;;;;;;;17.00;9.38;;;;;;;;;;5001805;28;20072;-74
2022/12/06 13:50:58;;;;;;;11.10;6.95;;;;;;;;;;5004891;28;20037;-74
2022/12/06 13:53:25;;;;;;;11.30;6.32;;;;;;;;;;5002830;28;20030;-75
2022/12/06 13:56:00;;;;;;;11.27;5.55;;;;;;;;;;5003475;28;20041;-74
2022/12/06 13:58:26;;;;;;;12.63;5.55;;;;;;;;;;5003871;28;20022;-74
2022/12/06 14:00:56;;;;;;;11.07;5.68;;;;;;;;;;5000519;28;20481;-74
2022/12/06 14:03:22;;;;;;;14.60;5.30;;;;;;;;;;5003361;28;20033;-74
2022/12/06 14:05:55;;;;;;;12.98;5.97;;;;;;;;;;5005124;28;20045;-74
2022/12/06 14:08:21;;;;;;;13.48;6.18;;;;;;;;;;5000419;28;20547;-74
2022/12/06 14:10:47;;;;;;;18.77;7.53;;;;;;;;;;5002367;28;20034;-74
2022/12/06 14:13:15;;;;;;;18.75;9.93;;;;;;;;;;5001769;28;20057;-74
2022/12/06 14:15:45;;;;;;;21.13;11.05;;;;;;;;;;4987507;28;20038;-74
2022/12/06 14:18:17;;;;;;;32.08;13.52;;;;;;;;;;5005494;28;20120;-74
2022/12/06 14:20:43;;;;;;;;;;;;;;;;;;5005161;28;20030;-74
2022/12/06 14:23:22;;;;;;;24.67;13.07;;;;;;;;;;5004971;28;19935;-75
2022/12/06 14:25:48;;;;;;;26.70;13.57;;;;;;;;;;5000921;28;20665;-74
2022/12/06 14:28:14;;;;;;;24.48;12.85;;;;;;;;;;4998363;28;20038;-75
2022/12/06 14:30:43;;;;;;;22.60;12.38;;;;;;;;;;5002700;28;20042;-75
2022/12/06 14:33:19;;;;;;;21.55;10.98;;;;;;;;;;5002146;28;20034;-74
2022/12/06 14:35:49;;;;;;;17.92;7.80;;;;;;;;;;5004887;28;20036;-74
2022/12/06 14:38:26;;;;;;;14.80;8.45;;;;;;;;;;5004200;28;20053;-74
2022/12/06 14:43:37;;;;;;;15.00;7.50;;;;;;;;;;5003073;28;20048;-74
2022/12/06 14:46:05;;;;;;;14.70;8.13;;;;;;;;;;5002273;28;20033;-75
2022/12/06 14:51:33;;;;;;;13.65;9.07;;;;;;;;;;5001524;28;20041;-74
2022/12/06 14:54:16;;;;;;;15.10;8.33;;;;;;;;;;4999986;28;20569;-74
2022/12/06 14:56:43;;;;;;;22.85;12.48;;;;;;;;;;5000545;28;20509;-74
2022/12/06 14:59:10;;;;;;;18.92;12.80;;;;;;;;;;5002859;28;20049;-74
2022/12/06 15:01:45;;;;;;;21.52;12.43;;;;;;;;;;4982269;28;20779;-75